Time;durP1;ratioP1;P1;durP2;ratioP2;P2;SDS_P1;SDS_P2;PMS_P1;PMS_P2;Temp;Humidity;BMP_temperature;BMP_pressure;BME280_temperature;BME280_humidity;BME280_pressure;Samples;Min_cycle;Max_cycle;Signal;HPM_P1;HPM_P2
2022/09/24 00:00:54;;;;;;;0.10;0.10;;;;;;;;;;4885303;29;20411;-88
2022/09/24 00:03:20;;;;;;;0.10;0.10;;;;;;;;;;4900349;29;20127;-88
2022/09/24 00:05:47;;;;;;;0.10;0.10;;;;;;;;;;4916344;29;20066;-88
2022/09/24 00:08:13;;;;;;;0.10;0.10;;;;;;;;;;4884613;29;20056;-88
2022/09/24 00:10:39;;;;;;;0.10;0.10;;;;;;;;;;4900185;29;20055;-88
2022/09/24 00:13:06;;;;;;;0.10;0.10;;;;;;;;;;4900412;29;20130;-88
2022/09/24 00:15:36;;;;;;;0.10;0.10;;;;;;;;;;4884694;29;20504;-87
2022/09/24 00:18:02;;;;;;;0.20;0.20;;;;;;;;;;4900245;29;20044;-88
2022/09/24 00:20:31;;;;;;;0.10;0.10;;;;;;;;;;4884587;29;20436;-88
2022/09/24 00:22:58;;;;;;;0.10;0.10;;;;;;;;;;4883502;29;20056;-88
2022/09/24 00:28:08;;;;;;;0.10;0.10;;;;;;;;;;4902306;29;20135;-90
2022/09/24 00:30:34;;;;;;;0.10;0.10;;;;;;;;;;4884056;29;20048;-89
2022/09/24 00:33:00;;;;;;;0.10;0.10;;;;;;;;;;4884319;29;20095;-89
2022/09/24 00:35:26;;;;;;;0.10;0.10;;;;;;;;;;4884388;29;20092;-90
2022/09/24 00:37:52;;;;;;;0.10;0.10;;;;;;;;;;4884272;29;20036;-89
2022/09/24 00:40:19;;;;;;;0.10;0.10;;;;;;;;;;4883910;29;20047;-90
2022/09/24 00:42:45;;;;;;;0.10;0.10;;;;;;;;;;4883906;29;20094;-89
2022/09/24 00:45:11;;;;;;;0.10;0.10;;;;;;;;;;4899533;29;20052;-90
2022/09/24 00:47:39;;;;;;;0.20;0.20;;;;;;;;;;4900089;29;20154;-90
2022/09/24 00:50:20;;;;;;;0.20;0.20;;;;;;;;;;4883820;29;20043;-90
2022/09/24 00:52:57;;;;;;;0.10;0.10;;;;;;;;;;4915495;29;20047;-90
2022/09/24 00:55:23;;;;;;;0.10;0.10;;;;;;;;;;4884063;29;20043;-88
2022/09/24 00:57:50;;;;;;;0.10;0.10;;;;;;;;;;4883638;29;20131;-89
2022/09/24 01:00:18;;;;;;;0.10;0.10;;;;;;;;;;4884083;29;20168;-89
2022/09/24 01:02:44;;;;;;;0.10;0.10;;;;;;;;;;4884320;29;20127;-89
2022/09/24 01:05:10;;;;;;;0.25;0.25;;;;;;;;;;4883600;29;20051;-89
2022/09/24 01:07:36;;;;;;;0.10;0.10;;;;;;;;;;4884089;29;20440;-88
2022/09/24 01:10:02;;;;;;;0.10;0.10;;;;;;;;;;4883576;29;20052;-88
2022/09/24 01:12:50;;;;;;;0.10;0.10;;;;;;;;;;4899073;29;20044;-88
2022/09/24 01:15:16;;;;;;;0.10;0.10;;;;;;;;;;4898933;29;20127;-88
2022/09/24 01:17:48;;;;;;;0.10;0.10;;;;;;;;;;4898695;29;20079;-87
2022/09/24 01:20:14;;;;;;;;;;;;;;;;;;4915321;29;20389;-87
2022/09/24 01:22:40;;;;;;;0.10;0.10;;;;;;;;;;4914577;29;19931;-89
2022/09/24 01:25:15;;;;;;;0.10;0.10;;;;;;;;;;4899013;29;20048;-89
2022/09/24 01:28:02;;;;;;;0.10;0.10;;;;;;;;;;4914666;29;20083;-88
2022/09/24 01:30:30;;;;;;;0.10;0.10;;;;;;;;;;4883313;29;20055;-88
2022/09/24 01:32:58;;;;;;;0.10;0.10;;;;;;;;;;4883450;29;20052;-87
2022/09/24 01:35:24;;;;;;;0.10;0.10;;;;;;;;;;4883513;29;20445;-88
2022/09/24 01:37:52;;;;;;;0.10;0.10;;;;;;;;;;4914815;29;20055;-88
2022/09/24 01:40:18;;;;;;;0.10;0.10;;;;;;;;;;4883124;29;20499;-89
2022/09/24 01:42:45;;;;;;;0.10;0.10;;;;;;;;;;4898761;29;20488;-88
2022/09/24 01:45:11;;;;;;;0.10;0.10;;;;;;;;;;4883042;29;20055;-90
2022/09/24 01:47:38;;;;;;;0.10;0.10;;;;;;;;;;4883087;29;20040;-88
2022/09/24 01:50:05;;;;;;;0.25;0.25;;;;;;;;;;4883158;29;20060;-88
2022/09/24 01:52:33;;;;;;;0.10;0.10;;;;;;;;;;4883317;29;20055;-89
2022/09/24 01:54:59;;;;;;;0.10;0.10;;;;;;;;;;4883021;29;20048;-89
2022/09/24 01:57:28;;;;;;;0.10;0.10;;;;;;;;;;4883124;29;20254;-89
2022/09/24 02:00:02;;;;;;;0.10;0.10;;;;;;;;;;4883457;29;20493;-90
2022/09/24 02:02:47;;;;;;;0.10;0.10;;;;;;;;;;4898767;29;20055;-89
2022/09/24 02:05:20;;;;;;;0.10;0.10;;;;;;;;;;4898347;29;20048;-88
2022/09/24 02:08:03;;;;;;;0.10;0.10;;;;;;;;;;4898632;29;20045;-90
2022/09/24 02:10:30;;;;;;;0.10;0.10;;;;;;;;;;4883011;29;20085;-89
2022/09/24 02:12:58;;;;;;;0.20;0.20;;;;;;;;;;4898401;29;20124;-89
2022/09/24 02:15:25;;;;;;;0.20;0.20;;;;;;;;;;4898667;29;20179;-90
2022/09/24 02:17:53;;;;;;;0.10;0.10;;;;;;;;;;4882918;29;20095;-90
2022/09/24 02:20:19;;;;;;;0.10;0.10;;;;;;;;;;4882877;29;20036;-89
2022/09/24 02:22:45;;;;;;;0.10;0.10;;;;;;;;;;4898730;29;20096;-89
2022/09/24 02:25:13;;;;;;;0.15;0.15;;;;;;;;;;4898541;29;20139;-88
2022/09/24 02:27:40;;;;;;;0.10;0.10;;;;;;;;;;4883142;29;20040;-88
2022/09/24 02:30:07;;;;;;;0.10;0.10;;;;;;;;;;4883589;29;20044;-88
2022/09/24 02:32:33;;;;;;;0.10;0.10;;;;;;;;;;4882844;29;20036;-88
2022/09/24 02:35:01;;;;;;;0.20;0.20;;;;;;;;;;4882863;29;20059;-88
2022/09/24 02:37:28;;;;;;;0.10;0.10;;;;;;;;;;4898682;29;20395;-88
2022/09/24 02:39:54;;;;;;;0.10;0.10;;;;;;;;;;4883044;29;20047;-88
2022/09/24 02:42:21;;;;;;;0.10;0.10;;;;;;;;;;4882692;29;20040;-87
2022/09/24 02:44:47;;;;;;;0.10;0.10;;;;;;;;;;4883842;29;20082;-86
2022/09/24 02:47:13;;;;;;;0.10;0.10;;;;;;;;;;4901829;29;20036;-87
2022/09/24 02:49:39;;;;;;;0.20;0.20;;;;;;;;;;4886466;29;20044;-88
2022/09/24 02:52:05;;;;;;;0.20;0.20;;;;;;;;;;4901563;29;20048;-88
2022/09/24 02:54:31;;;;;;;0.10;0.10;;;;;;;;;;4886349;29;20032;-87
2022/09/24 02:56:57;;;;;;;0.10;0.10;;;;;;;;;;4885941;29;20492;-88
2022/09/24 02:59:23;;;;;;;0.10;0.10;;;;;;;;;;4901473;29;20067;-90
2022/09/24 03:01:49;;;;;;;0.10;0.10;;;;;;;;;;4901571;29;20044;-90
2022/09/24 03:04:15;;;;;;;0.20;0.20;;;;;;;;;;4886206;29;20048;-89
2022/09/24 03:06:41;;;;;;;0.10;0.10;;;;;;;;;;4886147;29;20119;-90
2022/09/24 03:09:07;;;;;;;0.10;0.10;;;;;;;;;;4901593;29;20048;-89
2022/09/24 03:11:34;;;;;;;0.10;0.10;;;;;;;;;;4901784;29;20051;-90
2022/09/24 03:14:00;;;;;;;0.10;0.10;;;;;;;;;;4901883;29;20444;-90
2022/09/24 03:16:26;;;;;;;0.10;0.10;;;;;;;;;;4885926;29;20041;-89
2022/09/24 03:18:52;;;;;;;0.10;0.10;;;;;;;;;;4886248;29;20440;-89
2022/09/24 03:21:21;;;;;;;0.10;0.10;;;;;;;;;;4886476;29;20036;-89
2022/09/24 03:23:47;;;;;;;0.10;0.10;;;;;;;;;;4886228;29;20103;-88
2022/09/24 03:26:13;;;;;;;0.10;0.10;;;;;;;;;;4885351;29;20196;-88
2022/09/24 03:28:39;;;;;;;0.10;0.10;;;;;;;;;;4901077;29;20039;-88
2022/09/24 03:31:06;;;;;;;0.10;0.10;;;;;;;;;;4901092;29;20352;-88
2022/09/24 03:33:35;;;;;;;0.10;0.10;;;;;;;;;;4884948;29;20048;-88
2022/09/24 03:36:07;;;;;;;0.10;0.10;;;;;;;;;;4900644;29;20072;-88
2022/09/24 03:38:33;;;;;;;0.10;0.10;;;;;;;;;;4900567;29;20131;-89
2022/09/24 03:40:59;;;;;;;0.10;0.10;;;;;;;;;;4885081;29;20051;-88
2022/09/24 03:43:25;;;;;;;0.20;0.20;;;;;;;;;;4885107;29;20048;-89
2022/09/24 03:45:52;;;;;;;0.10;0.10;;;;;;;;;;4885276;29;20050;-88
2022/09/24 03:48:18;;;;;;;0.10;0.10;;;;;;;;;;4885353;29;20095;-89
2022/09/24 03:50:45;;;;;;;0.10;0.10;;;;;;;;;;4885034;29;20048;-87
2022/09/24 03:53:11;;;;;;;0.10;0.10;;;;;;;;;;4885066;29;20048;-88
2022/09/24 03:55:41;;;;;;;0.10;0.10;;;;;;;;;;4900282;29;20394;-87
2022/09/24 03:58:07;;;;;;;0.10;0.10;;;;;;;;;;4900907;29;20131;-87
2022/09/24 04:00:33;;;;;;;0.32;0.32;;;;;;;;;;4885144;29;20083;-88
2022/09/24 04:02:59;;;;;;;0.10;0.10;;;;;;;;;;4884951;29;20048;-88
2022/09/24 04:05:25;;;;;;;0.10;0.10;;;;;;;;;;4884733;29;20099;-89
2022/09/24 04:07:51;;;;;;;0.20;0.20;;;;;;;;;;4884908;29;20179;-88
2022/09/24 04:10:17;;;;;;;0.10;0.10;;;;;;;;;;4884861;29;20084;-89
2022/09/24 04:12:44;;;;;;;0.10;0.10;;;;;;;;;;4884579;29;20044;-89
2022/09/24 04:15:11;;;;;;;0.10;0.10;;;;;;;;;;4900407;29;20111;-90
2022/09/24 04:17:36;;;;;;;0.10;0.10;;;;;;;;;;4884509;29;20040;-89
2022/09/24 04:20:03;;;;;;;0.10;0.10;;;;;;;;;;4884924;29;20044;-89
2022/09/24 04:22:29;;;;;;;0.20;0.20;;;;;;;;;;4884243;29;20111;-89
2022/09/24 04:24:59;;;;;;;0.10;0.10;;;;;;;;;;4884306;29;20051;-89
2022/09/24 04:27:25;;;;;;;0.10;0.10;;;;;;;;;;4900027;29;20096;-89
2022/09/24 04:29:53;;;;;;;0.10;0.10;;;;;;;;;;4884306;29;20448;-90
2022/09/24 04:32:19;;;;;;;0.10;0.10;;;;;;;;;;4900355;29;20404;-88
2022/09/24 04:34:45;;;;;;;0.20;0.20;;;;;;;;;;4884720;29;20051;-89
2022/09/24 04:37:10;;;;;;;0.10;0.10;;;;;;;;;;4884419;29;20040;-89
2022/09/24 04:39:36;;;;;;;0.10;0.10;;;;;;;;;;4884777;29;20440;-89
2022/09/24 04:42:02;;;;;;;0.10;0.10;;;;;;;;;;4884326;29;20103;-88
2022/09/24 04:44:29;;;;;;;0.10;0.10;;;;;;;;;;4899734;29;20051;-90
2022/09/24 04:47:02;;;;;;;0.10;0.10;;;;;;;;;;4884228;29;20083;-89
2022/09/24 04:49:28;;;;;;;0.10;0.10;;;;;;;;;;4884796;29;20554;-88
2022/09/24 04:51:57;;;;;;;0.10;0.10;;;;;;;;;;4899455;29;20040;-89
2022/09/24 04:54:23;;;;;;;0.10;0.10;;;;;;;;;;4884300;29;20040;-89
2022/09/24 04:56:50;;;;;;;0.10;0.10;;;;;;;;;;4883854;29;20088;-89
2022/09/24 04:59:16;;;;;;;0.10;0.10;;;;;;;;;;4884214;29;20047;-88
2022/09/24 05:01:42;;;;;;;0.10;0.10;;;;;;;;;;4883996;29;20143;-89
2022/09/24 05:04:08;;;;;;;0.40;0.15;;;;;;;;;;4884159;29;20176;-88
2022/09/24 05:06:35;;;;;;;0.20;0.20;;;;;;;;;;4883843;29;20079;-88
2022/09/24 05:09:01;;;;;;;0.55;0.25;;;;;;;;;;4899238;29;20048;-89
2022/09/24 05:11:27;;;;;;;0.10;0.10;;;;;;;;;;4883983;29;20476;-88
2022/09/24 05:13:54;;;;;;;0.20;0.20;;;;;;;;;;4899488;29;20108;-89
2022/09/24 05:16:20;;;;;;;0.10;0.10;;;;;;;;;;4914779;29;20080;-89
2022/09/24 05:18:45;;;;;;;0.10;0.10;;;;;;;;;;4883755;29;20162;-88
2022/09/24 05:21:11;;;;;;;0.10;0.10;;;;;;;;;;4883125;29;20040;-90
2022/09/24 05:23:37;;;;;;;0.10;0.10;;;;;;;;;;4883137;29;20469;-90
2022/09/24 05:28:48;;;;;;;0.10;0.10;;;;;;;;;;4901609;29;20138;-90
2022/09/24 05:31:14;;;;;;;0.20;0.20;;;;;;;;;;4898816;29;20096;-89
2022/09/24 05:33:40;;;;;;;0.30;0.30;;;;;;;;;;4898740;29;20040;-89
2022/09/24 05:36:06;;;;;;;0.10;0.10;;;;;;;;;;4883555;29;20036;-89
2022/09/24 05:38:32;;;;;;;0.20;0.10;;;;;;;;;;4883289;29;20496;-90
2022/09/24 05:40:58;;;;;;;0.10;0.10;;;;;;;;;;4883465;29;20047;-89
2022/09/24 05:43:26;;;;;;;0.35;0.35;;;;;;;;;;4883632;29;20071;-90
2022/09/24 05:45:53;;;;;;;0.10;0.10;;;;;;;;;;4899548;29;20052;-89
2022/09/24 05:48:20;;;;;;;0.20;0.20;;;;;;;;;;4883393;29;20528;-89
2022/09/24 05:50:46;;;;;;;0.10;0.10;;;;;;;;;;4898702;29;20044;-88
2022/09/24 05:53:12;;;;;;;0.10;0.10;;;;;;;;;;4898656;29;20051;-89
2022/09/24 05:55:38;;;;;;;0.10;0.10;;;;;;;;;;4883590;29;20044;-90
2022/09/24 05:58:09;;;;;;;0.10;0.10;;;;;;;;;;4883534;29;20059;-90
2022/09/24 06:00:35;;;;;;;0.10;0.10;;;;;;;;;;4898833;29;20526;-88
2022/09/24 06:03:04;;;;;;;0.10;0.10;;;;;;;;;;4899427;29;20062;-88
2022/09/24 06:05:30;;;;;;;0.10;0.10;;;;;;;;;;4883279;29;20068;-88
2022/09/24 06:07:56;;;;;;;0.10;0.10;;;;;;;;;;4899225;29;20040;-89
2022/09/24 06:10:24;;;;;;;0.10;0.10;;;;;;;;;;4883931;29;20048;-89
2022/09/24 06:12:52;;;;;;;0.10;0.10;;;;;;;;;;4900012;29;20055;-87
2022/09/24 06:15:19;;;;;;;0.10;0.10;;;;;;;;;;4899371;29;20198;-91
2022/09/24 06:17:45;;;;;;;0.10;0.10;;;;;;;;;;4898709;29;20476;-90
2022/09/24 06:20:12;;;;;;;0.10;0.10;;;;;;;;;;4884692;29;20044;-92
2022/09/24 06:22:40;;;;;;;0.10;0.10;;;;;;;;;;4886645;29;20056;-91
2022/09/24 06:25:06;;;;;;;0.10;0.10;;;;;;;;;;4886976;29;20050;-90
2022/09/24 06:27:33;;;;;;;0.20;0.20;;;;;;;;;;4886367;29;20055;-89
2022/09/24 06:30:00;;;;;;;0.10;0.10;;;;;;;;;;4905615;29;20534;-91
2022/09/24 06:32:26;;;;;;;0.10;0.10;;;;;;;;;;4890513;29;20052;-89
2022/09/24 06:34:52;;;;;;;0.10;0.10;;;;;;;;;;4891266;29;20500;-90
2022/09/24 06:37:19;;;;;;;0.10;0.10;;;;;;;;;;4889922;29;20051;-91
2022/09/24 06:39:46;;;;;;;0.10;0.10;;;;;;;;;;4921427;29;20443;-90
2022/09/24 06:42:15;;;;;;;0.10;0.10;;;;;;;;;;4890570;29;20112;-89
2022/09/24 06:44:43;;;;;;;0.10;0.10;;;;;;;;;;4903603;29;20052;-90
2022/09/24 06:47:11;;;;;;;0.10;0.10;;;;;;;;;;4903457;29;20044;-91
2022/09/24 06:49:37;;;;;;;0.10;0.10;;;;;;;;;;4888150;29;20051;-88
2022/09/24 06:52:03;;;;;;;0.10;0.10;;;;;;;;;;4887650;29;20044;-90
2022/09/24 06:54:29;;;;;;;0.17;0.17;;;;;;;;;;4886318;29;20076;-88
2022/09/24 06:56:55;;;;;;;0.10;0.10;;;;;;;;;;4885864;29;20408;-89
2022/09/24 06:59:21;;;;;;;0.10;0.10;;;;;;;;;;4902161;29;20040;-88
2022/09/24 07:01:47;;;;;;;0.10;0.10;;;;;;;;;;4886250;29;20048;-90
2022/09/24 07:04:13;;;;;;;0.13;0.13;;;;;;;;;;4885951;29;20048;-90
2022/09/24 07:09:26;;;;;;;0.10;0.10;;;;;;;;;;4917298;29;20048;-88
2022/09/24 07:11:51;;;;;;;0.10;0.10;;;;;;;;;;4885971;29;20054;-90
2022/09/24 07:14:17;;;;;;;0.10;0.10;;;;;;;;;;4885642;29;20551;-90
2022/09/24 07:16:48;;;;;;;0.10;0.10;;;;;;;;;;4885834;29;20036;-92
2022/09/24 07:19:14;;;;;;;0.10;0.10;;;;;;;;;;4901161;29;20086;-88
2022/09/24 07:21:40;;;;;;;0.10;0.10;;;;;;;;;;4901678;29;20075;-89
2022/09/24 07:24:06;;;;;;;0.17;0.17;;;;;;;;;;4916440;29;20126;-87
2022/09/24 07:26:32;;;;;;;0.10;0.10;;;;;;;;;;4885659;29;20123;-89
2022/09/24 07:28:58;;;;;;;0.10;0.10;;;;;;;;;;4885720;29;20139;-89
2022/09/24 07:31:25;;;;;;;0.10;0.10;;;;;;;;;;4900718;29;20044;-90
2022/09/24 07:33:52;;;;;;;0.10;0.10;;;;;;;;;;4885720;29;20139;-89
2022/09/24 07:36:18;;;;;;;0.10;0.10;;;;;;;;;;4885391;29;20044;-90
2022/09/24 07:38:45;;;;;;;0.10;0.10;;;;;;;;;;4885148;29;20047;-91
2022/09/24 07:43:47;;;;;;;0.10;0.10;;;;;;;;;;4981442;23;20142;-90
2022/09/24 07:46:13;;;;;;;0.10;0.10;;;;;;;;;;4922968;29;20403;-89
2022/09/24 07:48:39;;;;;;;0.10;0.10;;;;;;;;;;4923358;29;20039;-91
2022/09/24 07:51:08;;;;;;;0.10;0.10;;;;;;;;;;4916127;29;20095;-90
2022/09/24 07:53:34;;;;;;;0.10;0.10;;;;;;;;;;4919248;29;20043;-89
2022/09/24 07:56:01;;;;;;;0.52;0.32;;;;;;;;;;4935656;29;20055;-89
2022/09/24 07:58:27;;;;;;;0.10;0.10;;;;;;;;;;4919632;29;20054;-89
2022/09/24 08:00:53;;;;;;;0.10;0.10;;;;;;;;;;4919283;29;20043;-90
2022/09/24 08:03:21;;;;;;;0.10;0.10;;;;;;;;;;4935320;29;20142;-93
2022/09/24 08:05:47;;;;;;;0.10;0.10;;;;;;;;;;4919483;29;20107;-90
2022/09/24 08:08:13;;;;;;;0.10;0.10;;;;;;;;;;4919654;29;20480;-90
2022/09/24 08:10:40;;;;;;;0.10;0.10;;;;;;;;;;4919905;29;20090;-89
2022/09/24 08:13:07;;;;;;;0.30;0.30;;;;;;;;;;4935696;29;20051;-89
2022/09/24 08:15:34;;;;;;;0.10;0.10;;;;;;;;;;4919730;29;20048;-88
2022/09/24 08:18:04;;;;;;;0.10;0.10;;;;;;;;;;4919959;29;20043;-91
2022/09/24 08:20:31;;;;;;;0.10;0.10;;;;;;;;;;4926805;29;20032;-90
2022/09/24 08:23:01;;;;;;;0.10;0.10;;;;;;;;;;4926336;29;20111;-90
2022/09/24 08:25:28;;;;;;;0.10;0.10;;;;;;;;;;4924575;29;20051;-90
2022/09/24 08:27:54;;;;;;;0.10;0.10;;;;;;;;;;4941293;29;20086;-90
2022/09/24 08:30:20;;;;;;;0.10;0.10;;;;;;;;;;4926038;29;20028;-90
2022/09/24 08:32:49;;;;;;;0.10;0.10;;;;;;;;;;4926857;29;20094;-91
2022/09/24 08:35:16;;;;;;;0.10;0.10;;;;;;;;;;4927705;29;20039;-90
2022/09/24 08:37:42;;;;;;;0.45;0.45;;;;;;;;;;4922990;29;20095;-89
2022/09/24 08:40:13;;;;;;;0.10;0.10;;;;;;;;;;4903014;29;20440;-90
2022/09/24 08:43:02;;;;;;;0.10;0.10;;;;;;;;;;4902181;29;20067;-89
2022/09/24 08:48:18;;;;;;;0.10;0.10;;;;;;;;;;4921277;29;20047;-88
2022/09/24 08:51:00;;;;;;;0.10;0.10;;;;;;;;;;4903002;29;20040;-89
2022/09/24 08:53:33;;;;;;;0.10;0.10;;;;;;;;;;4919255;29;20056;-89
2022/09/24 08:55:59;;;;;;;0.10;0.10;;;;;;;;;;4903138;29;20520;-91
2022/09/24 08:58:34;;;;;;;0.10;0.10;;;;;;;;;;4902589;29;20043;-91
2022/09/24 09:01:11;;;;;;;0.10;0.10;;;;;;;;;;4918529;29;20127;-91
2022/09/24 09:03:56;;;;;;;0.10;0.10;;;;;;;;;;4934178;29;20140;-89
2022/09/24 09:06:41;;;;;;;0.10;0.10;;;;;;;;;;4918407;29;20102;-88
2022/09/24 09:09:11;;;;;;;0.10;0.10;;;;;;;;;;4918345;29;20048;-88
2022/09/24 09:11:37;;;;;;;0.10;0.10;;;;;;;;;;4918045;29;20047;-89
2022/09/24 09:14:10;;;;;;;0.10;0.10;;;;;;;;;;4918113;29;20043;-88
2022/09/24 09:16:39;;;;;;;0.10;0.10;;;;;;;;;;4917958;29;20051;-88
2022/09/24 09:19:05;;;;;;;0.10;0.10;;;;;;;;;;4917793;29;20444;-88
2022/09/24 09:21:42;;;;;;;0.10;0.10;;;;;;;;;;4918440;29;20391;-89
2022/09/24 09:24:22;;;;;;;0.10;0.10;;;;;;;;;;4902484;29;20035;-90
2022/09/24 09:26:49;;;;;;;0.10;0.10;;;;;;;;;;4917749;29;20090;-88
2022/09/24 09:29:14;;;;;;;0.10;0.10;;;;;;;;;;4917859;29;20050;-88
2022/09/24 09:32:04;;;;;;;0.10;0.10;;;;;;;;;;4902065;29;20031;-87
2022/09/24 09:34:30;;;;;;;0.10;0.10;;;;;;;;;;4891968;29;20047;-88
2022/09/24 09:36:59;;;;;;;0.10;0.10;;;;;;;;;;4933712;29;20093;-90
2022/09/24 09:39:37;;;;;;;0.10;0.10;;;;;;;;;;4917705;29;20082;-89
2022/09/24 09:42:18;;;;;;;0.10;0.10;;;;;;;;;;4902163;29;20582;-88
2022/09/24 09:44:45;;;;;;;0.47;0.40;;;;;;;;;;4933523;29;20066;-89
2022/09/24 09:47:35;;;;;;;0.10;0.10;;;;;;;;;;4917822;29;20048;-87
2022/09/24 09:50:22;;;;;;;0.10;0.10;;;;;;;;;;4918290;29;20051;-87
2022/09/24 09:52:48;;;;;;;0.10;0.10;;;;;;;;;;4908361;29;20130;-89
2022/09/24 09:55:40;;;;;;;0.10;0.10;;;;;;;;;;4905538;29;20507;-88
2022/09/24 09:58:15;;;;;;;0.10;0.10;;;;;;;;;;4918905;29;20056;-89
2022/09/24 10:00:42;;;;;;;0.10;0.10;;;;;;;;;;4921945;29;20040;-89
2022/09/24 10:03:24;;;;;;;0.10;0.10;;;;;;;;;;4921895;29;20048;-90
2022/09/24 10:05:58;;;;;;;0.10;0.10;;;;;;;;;;4905716;29;20044;-91
2022/09/24 10:08:24;;;;;;;0.10;0.10;;;;;;;;;;4921806;29;20043;-91
2022/09/24 10:10:56;;;;;;;0.10;0.10;;;;;;;;;;4909265;29;20098;-88
2022/09/24 10:13:23;;;;;;;0.10;0.10;;;;;;;;;;4905636;29;20380;-88
2022/09/24 10:15:50;;;;;;;0.10;0.10;;;;;;;;;;4905823;29;20494;-89
2022/09/24 10:18:16;;;;;;;0.10;0.10;;;;;;;;;;4905665;29;20514;-89
2022/09/24 10:20:45;;;;;;;0.10;0.10;;;;;;;;;;4905311;29;20107;-89
2022/09/24 10:23:20;;;;;;;0.10;0.10;;;;;;;;;;4905273;29;20054;-91
2022/09/24 10:25:58;;;;;;;0.10;0.10;;;;;;;;;;4905470;29;20052;-89
2022/09/24 10:31:13;;;;;;;0.10;0.10;;;;;;;;;;4923454;29;20462;-89
2022/09/24 10:33:42;;;;;;;0.10;0.10;;;;;;;;;;4904038;29;20062;-89
2022/09/24 10:36:16;;;;;;;0.10;0.10;;;;;;;;;;4921065;29;20053;-88
2022/09/24 10:38:43;;;;;;;0.10;0.10;;;;;;;;;;4920963;29;20390;-88
2022/09/24 10:41:35;;;;;;;0.10;0.10;;;;;;;;;;4920875;29;20479;-87
2022/09/24 10:44:03;;;;;;;0.10;0.10;;;;;;;;;;4934490;29;20051;-87
2022/09/24 10:46:48;;;;;;;0.10;0.10;;;;;;;;;;4936522;29;20044;-87
2022/09/24 10:49:17;;;;;;;0.10;0.10;;;;;;;;;;4936252;29;20048;-88
2022/09/24 10:51:46;;;;;;;0.10;0.10;;;;;;;;;;4936159;29;20099;-88
2022/09/24 10:54:32;;;;;;;0.13;0.13;;;;;;;;;;4936559;29;20076;-88
2022/09/24 10:56:58;;;;;;;0.10;0.10;;;;;;;;;;4935612;29;20050;-88
2022/09/24 10:59:44;;;;;;;0.10;0.10;;;;;;;;;;4936401;29;20063;-90
2022/09/24 11:02:13;;;;;;;0.10;0.10;;;;;;;;;;4936378;29;20047;-88
2022/09/24 11:04:38;;;;;;;0.10;0.10;;;;;;;;;;4936200;29;20051;-87
2022/09/24 11:07:20;;;;;;;0.10;0.10;;;;;;;;;;4935430;29;20087;-90
2022/09/24 11:09:48;;;;;;;0.10;0.10;;;;;;;;;;4936304;29;20146;-89
2022/09/24 11:12:29;;;;;;;0.10;0.10;;;;;;;;;;4920079;29;20043;-88
2022/09/24 11:15:03;;;;;;;0.10;0.10;;;;;;;;;;4935968;29;20132;-88
2022/09/24 11:17:37;;;;;;;0.10;0.10;;;;;;;;;;4920561;29;20484;-88
2022/09/24 11:20:06;;;;;;;0.10;0.10;;;;;;;;;;4937637;29;20561;-89
2022/09/24 11:22:35;;;;;;;0.10;0.10;;;;;;;;;;4935883;29;20047;-89
2022/09/24 11:25:07;;;;;;;0.10;0.10;;;;;;;;;;4935694;29;20079;-90
2022/09/24 11:27:52;;;;;;;0.10;0.10;;;;;;;;;;4936085;29;20040;-92
2022/09/24 11:30:29;;;;;;;0.10;0.10;;;;;;;;;;4951463;29;20522;-88
2022/09/24 11:33:14;;;;;;;0.10;0.10;;;;;;;;;;4935908;29;20123;-89
2022/09/24 11:35:54;;;;;;;0.10;0.10;;;;;;;;;;4935723;29;20051;-88
2022/09/24 11:38:23;;;;;;;0.10;0.10;;;;;;;;;;4920387;29;20083;-89
2022/09/24 11:40:54;;;;;;;0.45;0.45;;;;;;;;;;4936037;29;20044;-88
2022/09/24 11:43:26;;;;;;;0.10;0.10;;;;;;;;;;4920209;29;20452;-89
2022/09/24 11:45:59;;;;;;;0.10;0.10;;;;;;;;;;4935616;29;20079;-89
2022/09/24 11:48:25;;;;;;;;;;;;;;;;;;4904078;29;20039;-89
2022/09/24 11:50:54;;;;;;;0.10;0.10;;;;;;;;;;4935219;29;19926;-89
2022/09/24 11:53:26;;;;;;;0.10;0.10;;;;;;;;;;4919574;29;20051;-89
2022/09/24 11:55:54;;;;;;;0.10;0.10;;;;;;;;;;4935190;29;20044;-90
2022/09/24 11:58:24;;;;;;;0.10;0.10;;;;;;;;;;4903800;29;20039;-89
2022/09/24 12:00:52;;;;;;;0.10;0.10;;;;;;;;;;4919496;29;20058;-89
2022/09/24 12:03:20;;;;;;;0.10;0.10;;;;;;;;;;4918780;29;20063;-88
2022/09/24 12:05:48;;;;;;;0.10;0.10;;;;;;;;;;4903717;29;20577;-89
2022/09/24 12:08:32;;;;;;;0.10;0.10;;;;;;;;;;4903529;29;20130;-89
2022/09/24 12:11:00;;;;;;;0.10;0.10;;;;;;;;;;4903442;29;20047;-87
2022/09/24 12:13:27;;;;;;;0.10;0.10;;;;;;;;;;4918928;29;20055;-90
2022/09/24 12:16:02;;;;;;;0.10;0.10;;;;;;;;;;4903543;29;20467;-89
2022/09/24 12:18:31;;;;;;;0.10;0.10;;;;;;;;;;4934427;29;20040;-90
2022/09/24 12:21:00;;;;;;;0.10;0.10;;;;;;;;;;4903224;29;20399;-90
2022/09/24 12:23:28;;;;;;;0.10;0.10;;;;;;;;;;4903453;29;20410;-87
2022/09/24 12:25:54;;;;;;;0.10;0.10;;;;;;;;;;4903129;29;20395;-90
2022/09/24 12:38:15;;;;;;;0.10;0.10;;;;;;;;;;4877116;29;20051;-93
2022/09/24 12:40:53;;;;;;;0.10;0.10;;;;;;;;;;4845999;29;20045;-92
2022/09/24 12:43:25;;;;;;;0.10;0.10;;;;;;;;;;4908075;29;20078;-89
2022/09/24 12:45:59;;;;;;;0.10;0.10;;;;;;;;;;4902451;29;20179;-90
2022/09/24 12:48:26;;;;;;;0.10;0.10;;;;;;;;;;4905317;29;20043;-93
2022/09/24 12:50:56;;;;;;;0.10;0.10;;;;;;;;;;4905212;29;20056;-92
2022/09/24 12:53:23;;;;;;;0.10;0.10;;;;;;;;;;4904278;29;20043;-92
2022/09/24 12:55:49;;;;;;;0.10;0.10;;;;;;;;;;4905256;29;20051;-93
2022/09/24 12:58:25;;;;;;;0.10;0.10;;;;;;;;;;4904272;29;20039;-92
2022/09/24 13:00:52;;;;;;;0.20;0.20;;;;;;;;;;4904900;29;20132;-94
2022/09/24 13:03:29;;;;;;;0.10;0.10;;;;;;;;;;4904377;29;20050;-89
2022/09/24 13:05:58;;;;;;;0.20;0.20;;;;;;;;;;4919709;29;20055;-90
2022/09/24 13:08:26;;;;;;;0.17;0.17;;;;;;;;;;4905383;29;20134;-93
2022/09/24 13:10:55;;;;;;;0.10;0.10;;;;;;;;;;4921976;29;20043;-93
2022/09/24 13:13:25;;;;;;;0.10;0.10;;;;;;;;;;4905036;29;20095;-92
2022/09/24 13:16:24;;;;;;;0.10;0.10;;;;;;;;;;4920870;29;20095;-91
2022/09/24 13:18:54;;;;;;;0.10;0.10;;;;;;;;;;4909186;29;20063;-93
2022/09/24 13:21:24;;;;;;;0.10;0.10;;;;;;;;;;4904904;29;20130;-94
2022/09/24 13:23:53;;;;;;;0.10;0.10;;;;;;;;;;4905511;29;20055;-93
2022/09/24 13:26:26;;;;;;;0.15;0.15;;;;;;;;;;4919481;29;20115;-93
2022/09/24 13:28:57;;;;;;;0.10;0.10;;;;;;;;;;4904078;29;20126;-93
2022/09/24 13:31:25;;;;;;;0.10;0.10;;;;;;;;;;4919635;29;20462;-94
2022/09/24 13:34:03;;;;;;;0.10;0.10;;;;;;;;;;4902738;29;20044;-94
2022/09/24 13:36:32;;;;;;;0.10;0.10;;;;;;;;;;4918931;29;20043;-94
2022/09/24 13:39:11;;;;;;;0.10;0.10;;;;;;;;;;4902734;29;20040;-93
2022/09/24 13:41:38;;;;;;;0.10;0.10;;;;;;;;;;4918804;29;20095;-92
2022/09/24 13:44:17;;;;;;;0.10;0.10;;;;;;;;;;4920050;29;20043;-94
2022/09/24 13:46:44;;;;;;;0.10;0.10;;;;;;;;;;4917947;29;20237;-91
2022/09/24 13:49:15;;;;;;;0.10;0.10;;;;;;;;;;4917595;29;20075;-92
2022/09/24 13:51:41;;;;;;;0.10;0.10;;;;;;;;;;4902163;29;20047;-92
2022/09/24 13:54:26;;;;;;;0.10;0.10;;;;;;;;;;4918062;29;20076;-89
2022/09/24 13:56:59;;;;;;;0.10;0.10;;;;;;;;;;4917502;29;20459;-89
2022/09/24 13:59:25;;;;;;;0.10;0.10;;;;;;;;;;4902065;29;20558;-90
2022/09/24 14:01:51;;;;;;;0.20;0.20;;;;;;;;;;4917177;29;20048;-92
2022/09/24 14:04:18;;;;;;;0.13;0.13;;;;;;;;;;4902413;29;20091;-90
2022/09/24 14:06:45;;;;;;;0.10;0.10;;;;;;;;;;4917760;29;20135;-89
2022/09/24 14:09:29;;;;;;;0.10;0.10;;;;;;;;;;4901917;29;20099;-90
2022/09/24 14:11:59;;;;;;;0.55;0.38;;;;;;;;;;4917201;29;20049;-88
2022/09/24 14:14:26;;;;;;;0.10;0.10;;;;;;;;;;4917605;29;20427;-89
2022/09/24 14:16:55;;;;;;;0.10;0.10;;;;;;;;;;4901787;29;20099;-92
2022/09/24 14:19:22;;;;;;;0.13;0.13;;;;;;;;;;4901753;29;20062;-92
2022/09/24 14:21:49;;;;;;;0.10;0.10;;;;;;;;;;4901541;29;20127;-91
2022/09/24 14:24:42;;;;;;;0.10;0.10;;;;;;;;;;4902137;29;20454;-88
2022/09/24 14:27:09;;;;;;;0.10;0.10;;;;;;;;;;4917600;29;20063;-89
2022/09/24 14:29:45;;;;;;;0.10;0.10;;;;;;;;;;4901575;29;20047;-89
2022/09/24 14:32:26;;;;;;;0.10;0.10;;;;;;;;;;4917532;29;20075;-91
2022/09/24 14:34:53;;;;;;;0.10;0.10;;;;;;;;;;4901575;29;20479;-91
2022/09/24 14:37:31;;;;;;;0.10;0.10;;;;;;;;;;4917533;29;20091;-95
2022/09/24 14:39:58;;;;;;;0.10;0.10;;;;;;;;;;4899698;29;20047;-91
2022/09/24 14:42:43;;;;;;;0.10;0.10;;;;;;;;;;4920464;29;20138;-91
2022/09/24 14:45:10;;;;;;;0.10;0.10;;;;;;;;;;4920871;29;20095;-90
2022/09/24 14:47:36;;;;;;;0.10;0.10;;;;;;;;;;4920606;29;20455;-90
2022/09/24 14:50:03;;;;;;;0.10;0.10;;;;;;;;;;4921243;29;20040;-93
2022/09/24 14:52:36;;;;;;;0.10;0.10;;;;;;;;;;4921546;29;20051;-92
2022/09/24 14:55:12;;;;;;;0.30;0.30;;;;;;;;;;4936325;29;20059;-91
2022/09/24 14:57:38;;;;;;;0.10;0.10;;;;;;;;;;4935877;29;20495;-91
2022/09/24 15:00:25;;;;;;;0.10;0.10;;;;;;;;;;4920640;29;20396;-91
2022/09/24 15:02:58;;;;;;;0.10;0.10;;;;;;;;;;4920620;29;20134;-93
2022/09/24 15:05:25;;;;;;;0.10;0.10;;;;;;;;;;4921989;29;20488;-91
2022/09/24 15:07:51;;;;;;;0.20;0.20;;;;;;;;;;4921843;29;20098;-91
2022/09/24 15:10:20;;;;;;;0.10;0.10;;;;;;;;;;4921526;29;20091;-91
2022/09/24 15:12:46;;;;;;;0.10;0.10;;;;;;;;;;4911949;29;20124;-92
2022/09/24 15:15:18;;;;;;;0.10;0.10;;;;;;;;;;4941622;29;20050;-92
2022/09/24 15:17:44;;;;;;;0.10;0.10;;;;;;;;;;4959045;29;20039;-92
2022/09/24 15:20:10;;;;;;;0.10;0.10;;;;;;;;;;4944262;29;20113;-92
2022/09/24 15:22:37;;;;;;;0.13;0.13;;;;;;;;;;4944651;29;20044;-93